sensor_id;sensor_type;location;lat;lon;timestamp;P1;durP1;ratioP1;P2;durP2;ratioP2
43363;SDS011;40636;52.424;-1.948;2023-08-24T00:00:29;6.57;;;3.78;;
43363;SDS011;40636;52.424;-1.948;2023-08-24T00:03:01;5.28;;;3.47;;
43363;SDS011;40636;52.424;-1.948;2023-08-24T00:05:40;5.53;;;3.38;;
43363;SDS011;40636;52.424;-1.948;2023-08-24T00:08:07;6.07;;;3.50;;
43363;SDS011;40636;52.424;-1.948;2023-08-24T00:10:35;5.22;;;3.72;;
43363;SDS011;40636;52.424;-1.948;2023-08-24T00:13:04;9.80;;;3.70;;
43363;SDS011;40636;52.424;-1.948;2023-08-24T00:15:32;7.00;;;2.97;;
43363;SDS011;40636;52.424;-1.948;2023-08-24T00:17:59;5.43;;;2.95;;
43363;SDS011;40636;52.424;-1.948;2023-08-24T00:20:26;6.63;;;3.40;;
43363;SDS011;40636;52.424;-1.948;2023-08-24T00:22:53;4.30;;;2.90;;
43363;SDS011;40636;52.424;-1.948;2023-08-24T00:25:20;5.30;;;3.35;;
43363;SDS011;40636;52.424;-1.948;2023-08-24T00:27:47;5.38;;;2.85;;
43363;SDS011;40636;52.424;-1.948;2023-08-24T00:30:14;5.75;;;4.40;;
43363;SDS011;40636;52.424;-1.948;2023-08-24T00:32:45;7.90;;;3.72;;
43363;SDS011;40636;52.424;-1.948;2023-08-24T00:35:16;5.47;;;3.50;;
43363;SDS011;40636;52.424;-1.948;2023-08-24T00:37:48;5.97;;;3.80;;
43363;SDS011;40636;52.424;-1.948;2023-08-24T00:40:17;5.60;;;3.45;;
43363;SDS011;40636;52.424;-1.948;2023-08-24T00:42:46;6.18;;;3.40;;
43363;SDS011;40636;52.424;-1.948;2023-08-24T00:45:13;5.00;;;3.42;;
43363;SDS011;40636;52.424;-1.948;2023-08-24T00:47:40;6.53;;;4.22;;
43363;SDS011;40636;52.424;-1.948;2023-08-24T00:50:09;6.60;;;3.83;;
43363;SDS011;40636;52.424;-1.948;2023-08-24T00:52:37;6.72;;;3.13;;
43363;SDS011;40636;52.424;-1.948;2023-08-24T00:55:06;6.38;;;3.65;;
43363;SDS011;40636;52.424;-1.948;2023-08-24T00:57:33;5.18;;;3.85;;
43363;SDS011;40636;52.424;-1.948;2023-08-24T01:00:14;4.65;;;3.65;;
43363;SDS011;40636;52.424;-1.948;2023-08-24T01:03:14;6.70;;;3.95;;
43363;SDS011;40636;52.424;-1.948;2023-08-24T01:05:45;8.30;;;4.03;;
43363;SDS011;40636;52.424;-1.948;2023-08-24T01:08:13;4.97;;;3.55;;
43363;SDS011;40636;52.424;-1.948;2023-08-24T01:10:52;6.72;;;3.75;;
43363;SDS011;40636;52.424;-1.948;2023-08-24T01:13:50;7.32;;;4.18;;
43363;SDS011;40636;52.424;-1.948;2023-08-24T01:16:36;7.90;;;3.22;;
43363;SDS011;40636;52.424;-1.948;2023-08-24T01:19:08;5.95;;;3.90;;
43363;SDS011;40636;52.424;-1.948;2023-08-24T01:21:56;6.15;;;3.67;;
43363;SDS011;40636;52.424;-1.948;2023-08-24T01:24:34;6.35;;;3.80;;
43363;SDS011;40636;52.424;-1.948;2023-08-24T01:27:07;5.88;;;3.78;;
43363;SDS011;40636;52.424;-1.948;2023-08-24T01:29:36;6.38;;;3.42;;
43363;SDS011;40636;52.424;-1.948;2023-08-24T01:32:09;5.55;;;3.55;;
43363;SDS011;40636;52.424;-1.948;2023-08-24T01:34:39;5.63;;;3.60;;
43363;SDS011;40636;52.424;-1.948;2023-08-24T01:37:07;5.15;;;3.75;;
43363;SDS011;40636;52.424;-1.948;2023-08-24T01:39:49;6.40;;;4.00;;
43363;SDS011;40636;52.424;-1.948;2023-08-24T01:42:20;5.47;;;4.07;;
43363;SDS011;40636;52.424;-1.948;2023-08-24T01:44:52;4.70;;;3.88;;
43363;SDS011;40636;52.424;-1.948;2023-08-24T01:47:25;6.35;;;3.58;;
43363;SDS011;40636;52.424;-1.948;2023-08-24T01:49:53;5.50;;;3.50;;
43363;SDS011;40636;52.424;-1.948;2023-08-24T01:52:21;6.68;;;3.65;;
43363;SDS011;40636;52.424;-1.948;2023-08-24T01:54:57;6.35;;;3.85;;
43363;SDS011;40636;52.424;-1.948;2023-08-24T01:57:24;4.47;;;2.80;;
43363;SDS011;40636;52.424;-1.948;2023-08-24T01:59:51;7.15;;;4.22;;
43363;SDS011;40636;52.424;-1.948;2023-08-24T02:02:18;6.85;;;3.95;;
43363;SDS011;40636;52.424;-1.948;2023-08-24T02:04:45;8.25;;;3.58;;
43363;SDS011;40636;52.424;-1.948;2023-08-24T02:07:11;5.38;;;3.35;;
43363;SDS011;40636;52.424;-1.948;2023-08-24T02:09:38;5.25;;;3.70;;
43363;SDS011;40636;52.424;-1.948;2023-08-24T02:12:05;5.10;;;3.50;;
43363;SDS011;40636;52.424;-1.948;2023-08-24T02:14:32;6.90;;;3.95;;
43363;SDS011;40636;52.424;-1.948;2023-08-24T02:16:59;5.13;;;3.60;;
43363;SDS011;40636;52.424;-1.948;2023-08-24T02:19:28;5.70;;;4.30;;
43363;SDS011;40636;52.424;-1.948;2023-08-24T02:21:54;5.50;;;3.47;;
43363;SDS011;40636;52.424;-1.948;2023-08-24T02:24:21;7.72;;;4.55;;
43363;SDS011;40636;52.424;-1.948;2023-08-24T02:26:48;5.20;;;3.60;;
43363;SDS011;40636;52.424;-1.948;2023-08-24T02:29:15;5.18;;;3.47;;
43363;SDS011;40636;52.424;-1.948;2023-08-24T02:31:48;5.35;;;3.50;;
43363;SDS011;40636;52.424;-1.948;2023-08-24T02:34:16;7.28;;;3.30;;
43363;SDS011;40636;52.424;-1.948;2023-08-24T02:36:43;4.20;;;3.17;;
43363;SDS011;40636;52.424;-1.948;2023-08-24T02:39:10;5.90;;;3.25;;
43363;SDS011;40636;52.424;-1.948;2023-08-24T02:41:37;7.80;;;3.67;;
43363;SDS011;40636;52.424;-1.948;2023-08-24T02:44:03;7.72;;;4.38;;
43363;SDS011;40636;52.424;-1.948;2023-08-24T02:46:30;5.57;;;3.40;;
43363;SDS011;40636;52.424;-1.948;2023-08-24T02:48:57;4.72;;;3.40;;
43363;SDS011;40636;52.424;-1.948;2023-08-24T02:51:24;4.82;;;3.33;;
43363;SDS011;40636;52.424;-1.948;2023-08-24T02:53:50;6.57;;;3.70;;
43363;SDS011;40636;52.424;-1.948;2023-08-24T02:56:18;6.07;;;3.05;;
43363;SDS011;40636;52.424;-1.948;2023-08-24T02:58:44;4.68;;;3.10;;
43363;SDS011;40636;52.424;-1.948;2023-08-24T03:01:14;4.35;;;2.88;;
43363;SDS011;40636;52.424;-1.948;2023-08-24T03:03:40;5.75;;;3.05;;
43363;SDS011;40636;52.424;-1.948;2023-08-24T03:06:18;5.47;;;2.97;;
43363;SDS011;40636;52.424;-1.948;2023-08-24T03:08:47;4.55;;;2.95;;
43363;SDS011;40636;52.424;-1.948;2023-08-24T03:11:14;4.28;;;3.25;;
43363;SDS011;40636;52.424;-1.948;2023-08-24T03:13:40;4.32;;;2.83;;
43363;SDS011;40636;52.424;-1.948;2023-08-24T03:16:08;4.45;;;3.00;;
43363;SDS011;40636;52.424;-1.948;2023-08-24T03:18:35;6.57;;;3.65;;
43363;SDS011;40636;52.424;-1.948;2023-08-24T03:21:04;9.93;;;3.35;;
43363;SDS011;40636;52.424;-1.948;2023-08-24T03:23:31;3.58;;;2.92;;
43363;SDS011;40636;52.424;-1.948;2023-08-24T03:25:58;3.45;;;2.60;;
43363;SDS011;40636;52.424;-1.948;2023-08-24T03:28:24;5.38;;;3.05;;
43363;SDS011;40636;52.424;-1.948;2023-08-24T03:30:51;3.35;;;2.55;;
43363;SDS011;40636;52.424;-1.948;2023-08-24T03:33:20;4.40;;;3.00;;
43363;SDS011;40636;52.424;-1.948;2023-08-24T03:35:47;3.97;;;2.78;;
43363;SDS011;40636;52.424;-1.948;2023-08-24T03:38:15;4.35;;;2.70;;
43363;SDS011;40636;52.424;-1.948;2023-08-24T03:40:42;5.05;;;3.00;;
43363;SDS011;40636;52.424;-1.948;2023-08-24T03:43:09;5.43;;;2.90;;
43363;SDS011;40636;52.424;-1.948;2023-08-24T03:45:36;4.38;;;3.60;;
43363;SDS011;40636;52.424;-1.948;2023-08-24T03:48:03;2.55;;;1.90;;
43363;SDS011;40636;52.424;-1.948;2023-08-24T03:50:30;7.47;;;3.50;;
43363;SDS011;40636;52.424;-1.948;2023-08-24T03:52:57;4.00;;;2.60;;
43363;SDS011;40636;52.424;-1.948;2023-08-24T03:55:24;4.30;;;2.90;;
43363;SDS011;40636;52.424;-1.948;2023-08-24T03:57:50;3.75;;;2.90;;
43363;SDS011;40636;52.424;-1.948;2023-08-24T04:00:18;2.65;;;1.95;;
43363;SDS011;40636;52.424;-1.948;2023-08-24T04:02:46;6.03;;;3.10;;
43363;SDS011;40636;52.424;-1.948;2023-08-24T04:05:13;4.40;;;2.40;;
43363;SDS011;40636;52.424;-1.948;2023-08-24T04:07:40;4.13;;;2.08;;
43363;SDS011;40636;52.424;-1.948;2023-08-24T04:10:07;3.72;;;2.33;;
43363;SDS011;40636;52.424;-1.948;2023-08-24T04:12:36;4.85;;;3.08;;
43363;SDS011;40636;52.424;-1.948;2023-08-24T04:15:03;3.22;;;2.22;;
43363;SDS011;40636;52.424;-1.948;2023-08-24T04:17:31;3.45;;;2.10;;
43363;SDS011;40636;52.424;-1.948;2023-08-24T04:20:18;3.35;;;2.72;;
43363;SDS011;40636;52.424;-1.948;2023-08-24T04:22:45;6.28;;;2.17;;
43363;SDS011;40636;52.424;-1.948;2023-08-24T04:25:15;4.82;;;2.20;;
43363;SDS011;40636;52.424;-1.948;2023-08-24T04:27:41;3.35;;;2.25;;
43363;SDS011;40636;52.424;-1.948;2023-08-24T04:30:08;3.45;;;2.00;;
43363;SDS011;40636;52.424;-1.948;2023-08-24T04:32:38;4.50;;;2.63;;
43363;SDS011;40636;52.424;-1.948;2023-08-24T04:35:05;3.75;;;2.25;;
43363;SDS011;40636;52.424;-1.948;2023-08-24T04:37:33;3.08;;;2.20;;
43363;SDS011;40636;52.424;-1.948;2023-08-24T04:39:59;3.70;;;2.38;;
43363;SDS011;40636;52.424;-1.948;2023-08-24T04:42:26;4.45;;;1.95;;
43363;SDS011;40636;52.424;-1.948;2023-08-24T04:44:53;4.32;;;2.63;;
43363;SDS011;40636;52.424;-1.948;2023-08-24T04:47:20;2.90;;;2.15;;
43363;SDS011;40636;52.424;-1.948;2023-08-24T04:49:46;2.38;;;2.05;;
43363;SDS011;40636;52.424;-1.948;2023-08-24T04:52:13;3.63;;;2.50;;
43363;SDS011;40636;52.424;-1.948;2023-08-24T04:54:40;4.90;;;2.00;;
43363;SDS011;40636;52.424;-1.948;2023-08-24T04:57:08;5.22;;;2.40;;
43363;SDS011;40636;52.424;-1.948;2023-08-24T04:59:35;4.55;;;2.30;;
43363;SDS011;40636;52.424;-1.948;2023-08-24T05:02:04;2.92;;;2.10;;
43363;SDS011;40636;52.424;-1.948;2023-08-24T05:04:31;3.53;;;2.10;;
43363;SDS011;40636;52.424;-1.948;2023-08-24T05:06:58;4.20;;;1.77;;
43363;SDS011;40636;52.424;-1.948;2023-08-24T05:09:25;3.28;;;2.05;;
43363;SDS011;40636;52.424;-1.948;2023-08-24T05:11:51;2.65;;;1.95;;
43363;SDS011;40636;52.424;-1.948;2023-08-24T05:14:18;2.85;;;2.00;;
43363;SDS011;40636;52.424;-1.948;2023-08-24T05:16:45;1.95;;;1.42;;
43363;SDS011;40636;52.424;-1.948;2023-08-24T05:19:12;4.43;;;1.67;;
43363;SDS011;40636;52.424;-1.948;2023-08-24T05:21:39;3.13;;;2.10;;
43363;SDS011;40636;52.424;-1.948;2023-08-24T05:24:06;2.60;;;1.90;;
43363;SDS011;40636;52.424;-1.948;2023-08-24T05:26:33;2.60;;;1.83;;
43363;SDS011;40636;52.424;-1.948;2023-08-24T05:29:00;2.53;;;1.77;;
43363;SDS011;40636;52.424;-1.948;2023-08-24T05:31:27;2.78;;;1.50;;
43363;SDS011;40636;52.424;-1.948;2023-08-24T05:33:54;2.90;;;1.70;;
43363;SDS011;40636;52.424;-1.948;2023-08-24T05:36:21;2.60;;;1.70;;
43363;SDS011;40636;52.424;-1.948;2023-08-24T05:38:48;3.65;;;1.88;;
43363;SDS011;40636;52.424;-1.948;2023-08-24T05:41:17;4.15;;;1.85;;
43363;SDS011;40636;52.424;-1.948;2023-08-24T05:43:44;4.07;;;2.30;;
43363;SDS011;40636;52.424;-1.948;2023-08-24T05:46:11;3.53;;;2.08;;
43363;SDS011;40636;52.424;-1.948;2023-08-24T05:48:41;4.10;;;1.80;;
43363;SDS011;40636;52.424;-1.948;2023-08-24T05:51:08;2.03;;;1.60;;
43363;SDS011;40636;52.424;-1.948;2023-08-24T05:53:36;3.67;;;1.77;;
43363;SDS011;40636;52.424;-1.948;2023-08-24T05:56:03;4.05;;;2.30;;
43363;SDS011;40636;52.424;-1.948;2023-08-24T05:58:30;2.95;;;1.70;;
43363;SDS011;40636;52.424;-1.948;2023-08-24T06:00:57;3.28;;;2.15;;
43363;SDS011;40636;52.424;-1.948;2023-08-24T06:03:25;4.57;;;1.85;;
43363;SDS011;40636;52.424;-1.948;2023-08-24T06:05:52;3.25;;;2.03;;
43363;SDS011;40636;52.424;-1.948;2023-08-24T06:08:27;3.38;;;1.55;;
43363;SDS011;40636;52.424;-1.948;2023-08-24T06:10:54;6.82;;;2.42;;
43363;SDS011;40636;52.424;-1.948;2023-08-24T06:13:22;3.60;;;1.77;;
43363;SDS011;40636;52.424;-1.948;2023-08-24T06:15:49;4.30;;;2.00;;
43363;SDS011;40636;52.424;-1.948;2023-08-24T06:18:15;3.10;;;2.13;;
43363;SDS011;40636;52.424;-1.948;2023-08-24T06:20:42;3.78;;;2.03;;
43363;SDS011;40636;52.424;-1.948;2023-08-24T06:23:09;2.55;;;1.70;;
43363;SDS011;40636;52.424;-1.948;2023-08-24T06:25:36;3.83;;;1.88;;
43363;SDS011;40636;52.424;-1.948;2023-08-24T06:28:02;2.17;;;1.63;;
43363;SDS011;40636;52.424;-1.948;2023-08-24T06:30:30;4.15;;;1.95;;
43363;SDS011;40636;52.424;-1.948;2023-08-24T06:33:07;2.70;;;1.90;;
43363;SDS011;40636;52.424;-1.948;2023-08-24T06:35:34;3.05;;;1.55;;
43363;SDS011;40636;52.424;-1.948;2023-08-24T06:38:01;3.05;;;1.88;;
43363;SDS011;40636;52.424;-1.948;2023-08-24T06:40:29;2.55;;;1.55;;
43363;SDS011;40636;52.424;-1.948;2023-08-24T06:42:56;2.45;;;1.52;;
43363;SDS011;40636;52.424;-1.948;2023-08-24T06:45:23;2.50;;;1.63;;
43363;SDS011;40636;52.424;-1.948;2023-08-24T06:47:50;3.88;;;1.30;;
43363;SDS011;40636;52.424;-1.948;2023-08-24T06:50:19;4.97;;;1.60;;
43363;SDS011;40636;52.424;-1.948;2023-08-24T06:52:46;3.63;;;1.80;;
43363;SDS011;40636;52.424;-1.948;2023-08-24T06:55:13;2.08;;;1.23;;
43363;SDS011;40636;52.424;-1.948;2023-08-24T06:57:39;3.25;;;1.58;;
43363;SDS011;40636;52.424;-1.948;2023-08-24T07:00:10;3.97;;;1.67;;
43363;SDS011;40636;52.424;-1.948;2023-08-24T07:02:39;3.20;;;1.40;;
43363;SDS011;40636;52.424;-1.948;2023-08-24T07:05:06;3.72;;;1.98;;
43363;SDS011;40636;52.424;-1.948;2023-08-24T07:07:35;2.58;;;1.35;;
43363;SDS011;40636;52.424;-1.948;2023-08-24T07:10:02;1.88;;;1.42;;
43363;SDS011;40636;52.424;-1.948;2023-08-24T07:12:30;2.75;;;1.70;;
43363;SDS011;40636;52.424;-1.948;2023-08-24T07:14:57;1.80;;;1.50;;
43363;SDS011;40636;52.424;-1.948;2023-08-24T07:17:23;6.13;;;1.63;;
43363;SDS011;40636;52.424;-1.948;2023-08-24T07:19:51;3.60;;;1.65;;
43363;SDS011;40636;52.424;-1.948;2023-08-24T07:22:17;4.70;;;1.90;;
43363;SDS011;40636;52.424;-1.948;2023-08-24T07:24:45;3.05;;;1.30;;
43363;SDS011;40636;52.424;-1.948;2023-08-24T07:27:21;8.03;;;1.90;;
43363;SDS011;40636;52.424;-1.948;2023-08-24T07:29:47;1.88;;;1.23;;
43363;SDS011;40636;52.424;-1.948;2023-08-24T07:32:14;2.75;;;1.40;;
43363;SDS011;40636;52.424;-1.948;2023-08-24T07:34:41;3.60;;;1.60;;
43363;SDS011;40636;52.424;-1.948;2023-08-24T07:37:08;3.05;;;1.88;;
43363;SDS011;40636;52.424;-1.948;2023-08-24T07:39:35;5.43;;;1.65;;
43363;SDS011;40636;52.424;-1.948;2023-08-24T07:42:02;5.35;;;1.63;;
43363;SDS011;40636;52.424;-1.948;2023-08-24T07:44:30;3.65;;;1.63;;
43363;SDS011;40636;52.424;-1.948;2023-08-24T07:46:57;2.10;;;1.17;;
43363;SDS011;40636;52.424;-1.948;2023-08-24T07:49:24;3.25;;;1.15;;
43363;SDS011;40636;52.424;-1.948;2023-08-24T07:51:51;1.40;;;0.77;;
43363;SDS011;40636;52.424;-1.948;2023-08-24T07:54:23;1.88;;;1.13;;
43363;SDS011;40636;52.424;-1.948;2023-08-24T07:56:53;3.15;;;0.95;;
43363;SDS011;40636;52.424;-1.948;2023-08-24T07:59:20;4.40;;;2.20;;
43363;SDS011;40636;52.424;-1.948;2023-08-24T08:01:50;2.22;;;0.80;;
43363;SDS011;40636;52.424;-1.948;2023-08-24T08:04:17;1.63;;;0.70;;
43363;SDS011;40636;52.424;-1.948;2023-08-24T08:06:44;4.15;;;0.98;;
43363;SDS011;40636;52.424;-1.948;2023-08-24T08:09:13;1.17;;;0.70;;
43363;SDS011;40636;52.424;-1.948;2023-08-24T08:11:40;1.00;;;0.90;;
43363;SDS011;40636;52.424;-1.948;2023-08-24T08:14:06;1.48;;;1.08;;
43363;SDS011;40636;52.424;-1.948;2023-08-24T08:16:33;2.78;;;0.80;;
43363;SDS011;40636;52.424;-1.948;2023-08-24T08:19:01;1.02;;;0.73;;
43363;SDS011;40636;52.424;-1.948;2023-08-24T08:21:34;1.30;;;0.98;;
43363;SDS011;40636;52.424;-1.948;2023-08-24T08:24:01;1.52;;;0.60;;
43363;SDS011;40636;52.424;-1.948;2023-08-24T08:26:27;2.63;;;0.70;;
43363;SDS011;40636;52.424;-1.948;2023-08-24T08:28:55;0.68;;;0.63;;
43363;SDS011;40636;52.424;-1.948;2023-08-24T08:31:23;1.05;;;0.77;;
43363;SDS011;40636;52.424;-1.948;2023-08-24T08:33:50;0.73;;;0.68;;
43363;SDS011;40636;52.424;-1.948;2023-08-24T08:36:17;1.75;;;0.80;;
43363;SDS011;40636;52.424;-1.948;2023-08-24T08:38:44;2.85;;;0.70;;
43363;SDS011;40636;52.424;-1.948;2023-08-24T08:41:11;1.10;;;0.63;;
43363;SDS011;40636;52.424;-1.948;2023-08-24T08:43:40;1.13;;;0.80;;
43363;SDS011;40636;52.424;-1.948;2023-08-24T08:46:07;2.25;;;0.88;;
43363;SDS011;40636;52.424;-1.948;2023-08-24T08:48:35;1.58;;;0.88;;
43363;SDS011;40636;52.424;-1.948;2023-08-24T08:51:03;2.42;;;1.02;;
43363;SDS011;40636;52.424;-1.948;2023-08-24T08:53:30;1.05;;;0.75;;
43363;SDS011;40636;52.424;-1.948;2023-08-24T08:55:58;4.22;;;1.10;;
43363;SDS011;40636;52.424;-1.948;2023-08-24T08:58:31;1.17;;;0.98;;
43363;SDS011;40636;52.424;-1.948;2023-08-24T09:00:58;2.03;;;1.10;;
43363;SDS011;40636;52.424;-1.948;2023-08-24T09:03:32;8.45;;;3.25;;
43363;SDS011;40636;52.424;-1.948;2023-08-24T09:06:01;1.35;;;1.25;;
43363;SDS011;40636;52.424;-1.948;2023-08-24T09:08:28;2.33;;;1.08;;
43363;SDS011;40636;52.424;-1.948;2023-08-24T09:10:55;2.05;;;1.38;;
43363;SDS011;40636;52.424;-1.948;2023-08-24T09:13:25;2.90;;;1.13;;
43363;SDS011;40636;52.424;-1.948;2023-08-24T09:15:52;1.50;;;0.88;;
43363;SDS011;40636;52.424;-1.948;2023-08-24T09:18:22;1.77;;;1.27;;
43363;SDS011;40636;52.424;-1.948;2023-08-24T09:21:12;2.63;;;1.30;;
43363;SDS011;40636;52.424;-1.948;2023-08-24T09:23:44;1.30;;;1.17;;
43363;SDS011;40636;52.424;-1.948;2023-08-24T09:26:12;2.92;;;0.90;;
43363;SDS011;40636;52.424;-1.948;2023-08-24T09:28:42;1.98;;;1.00;;
43363;SDS011;40636;52.424;-1.948;2023-08-24T09:31:12;2.13;;;1.38;;
43363;SDS011;40636;52.424;-1.948;2023-08-24T09:33:42;2.40;;;1.48;;
43363;SDS011;40636;52.424;-1.948;2023-08-24T09:36:11;3.45;;;1.25;;
43363;SDS011;40636;52.424;-1.948;2023-08-24T09:41:38;2.13;;;0.80;;
43363;SDS011;40636;52.424;-1.948;2023-08-24T09:44:08;1.52;;;0.88;;
43363;SDS011;40636;52.424;-1.948;2023-08-24T09:46:35;2.17;;;0.73;;
43363;SDS011;40636;52.424;-1.948;2023-08-24T09:49:06;3.20;;;1.10;;
43363;SDS011;40636;52.424;-1.948;2023-08-24T09:51:33;2.50;;;0.90;;
43363;SDS011;40636;52.424;-1.948;2023-08-24T09:54:02;0.95;;;0.60;;
43363;SDS011;40636;52.424;-1.948;2023-08-24T09:56:35;2.65;;;1.00;;
43363;SDS011;40636;52.424;-1.948;2023-08-24T09:59:11;1.08;;;0.85;;
43363;SDS011;40636;52.424;-1.948;2023-08-24T10:01:51;1.63;;;0.90;;
43363;SDS011;40636;52.424;-1.948;2023-08-24T10:04:24;3.30;;;0.95;;
43363;SDS011;40636;52.424;-1.948;2023-08-24T10:06:53;2.35;;;1.20;;
43363;SDS011;40636;52.424;-1.948;2023-08-24T10:09:27;1.40;;;0.90;;
43363;SDS011;40636;52.424;-1.948;2023-08-24T10:12:04;1.85;;;0.98;;
43363;SDS011;40636;52.424;-1.948;2023-08-24T10:14:36;1.40;;;1.10;;
43363;SDS011;40636;52.424;-1.948;2023-08-24T10:17:31;3.65;;;1.27;;
43363;SDS011;40636;52.424;-1.948;2023-08-24T10:19:59;1.20;;;0.90;;
43363;SDS011;40636;52.424;-1.948;2023-08-24T10:22:34;2.80;;;1.45;;
43363;SDS011;40636;52.424;-1.948;2023-08-24T10:25:02;2.55;;;1.10;;
43363;SDS011;40636;52.424;-1.948;2023-08-24T10:27:37;1.92;;;1.27;;
43363;SDS011;40636;52.424;-1.948;2023-08-24T10:30:13;2.88;;;0.90;;
43363;SDS011;40636;52.424;-1.948;2023-08-24T10:32:47;1.98;;;1.30;;
43363;SDS011;40636;52.424;-1.948;2023-08-24T10:35:16;2.00;;;1.17;;
43363;SDS011;40636;52.424;-1.948;2023-08-24T10:37:46;2.55;;;1.17;;
43363;SDS011;40636;52.424;-1.948;2023-08-24T10:40:30;1.48;;;0.93;;
43363;SDS011;40636;52.424;-1.948;2023-08-24T10:43:05;1.70;;;0.93;;
43363;SDS011;40636;52.424;-1.948;2023-08-24T10:48:21;2.17;;;1.05;;
43363;SDS011;40636;52.424;-1.948;2023-08-24T10:53:40;2.28;;;2.08;;
43363;SDS011;40636;52.424;-1.948;2023-08-24T10:56:11;4.80;;;1.08;;
43363;SDS011;40636;52.424;-1.948;2023-08-24T10:58:39;4.25;;;0.70;;
43363;SDS011;40636;52.424;-1.948;2023-08-24T11:01:13;1.38;;;0.75;;
43363;SDS011;40636;52.424;-1.948;2023-08-24T11:03:49;1.50;;;1.00;;
43363;SDS011;40636;52.424;-1.948;2023-08-24T11:06:18;3.63;;;1.85;;
43363;SDS011;40636;52.424;-1.948;2023-08-24T11:08:46;2.17;;;0.70;;
43363;SDS011;40636;52.424;-1.948;2023-08-24T11:11:20;0.90;;;0.80;;
43363;SDS011;40636;52.424;-1.948;2023-08-24T11:16:46;2.20;;;0.73;;
43363;SDS011;40636;52.424;-1.948;2023-08-24T11:19:20;0.57;;;0.55;;
43363;SDS011;40636;52.424;-1.948;2023-08-24T11:21:47;1.05;;;0.60;;
43363;SDS011;40636;52.424;-1.948;2023-08-24T11:24:15;1.85;;;0.70;;
43363;SDS011;40636;52.424;-1.948;2023-08-24T11:26:44;0.70;;;0.63;;
43363;SDS011;40636;52.424;-1.948;2023-08-24T11:29:12;0.80;;;0.63;;
43363;SDS011;40636;52.424;-1.948;2023-08-24T11:31:39;3.92;;;1.00;;
43363;SDS011;40636;52.424;-1.948;2023-08-24T11:34:14;1.58;;;0.75;;
43363;SDS011;40636;52.424;-1.948;2023-08-24T11:36:51;1.00;;;0.90;;
43363;SDS011;40636;52.424;-1.948;2023-08-24T11:39:19;1.60;;;0.60;;
43363;SDS011;40636;52.424;-1.948;2023-08-24T11:42:02;0.50;;;0.50;;
43363;SDS011;40636;52.424;-1.948;2023-08-24T11:44:30;1.40;;;0.82;;
43363;SDS011;40636;52.424;-1.948;2023-08-24T11:47:15;0.50;;;0.50;;
43363;SDS011;40636;52.424;-1.948;2023-08-24T11:49:50;1.38;;;0.70;;
43363;SDS011;40636;52.424;-1.948;2023-08-24T11:52:16;1.15;;;0.60;;
43363;SDS011;40636;52.424;-1.948;2023-08-24T11:54:43;0.80;;;0.60;;
43363;SDS011;40636;52.424;-1.948;2023-08-24T11:57:13;0.85;;;0.77;;
43363;SDS011;40636;52.424;-1.948;2023-08-24T11:59:51;0.98;;;0.63;;
43363;SDS011;40636;52.424;-1.948;2023-08-24T12:02:20;0.90;;;0.68;;
43363;SDS011;40636;52.424;-1.948;2023-08-24T12:04:48;1.05;;;0.75;;
43363;SDS011;40636;52.424;-1.948;2023-08-24T12:07:15;1.98;;;1.13;;
43363;SDS011;40636;52.424;-1.948;2023-08-24T12:09:44;2.15;;;0.93;;
43363;SDS011;40636;52.424;-1.948;2023-08-24T12:12:20;1.77;;;0.70;;
43363;SDS011;40636;52.424;-1.948;2023-08-24T12:14:49;2.55;;;0.80;;
43363;SDS011;40636;52.424;-1.948;2023-08-24T12:17:17;1.02;;;0.85;;
43363;SDS011;40636;52.424;-1.948;2023-08-24T12:22:54;0.80;;;0.70;;
43363;SDS011;40636;52.424;-1.948;2023-08-24T12:25:30;1.00;;;0.73;;
43363;SDS011;40636;52.424;-1.948;2023-08-24T12:28:13;1.67;;;0.80;;
43363;SDS011;40636;52.424;-1.948;2023-08-24T12:30:43;0.65;;;0.60;;
43363;SDS011;40636;52.424;-1.948;2023-08-24T12:33:20;0.47;;;0.40;;
43363;SDS011;40636;52.424;-1.948;2023-08-24T12:35:52;0.52;;;0.50;;
43363;SDS011;40636;52.424;-1.948;2023-08-24T12:38:19;0.93;;;0.93;;
43363;SDS011;40636;52.424;-1.948;2023-08-24T12:40:48;0.50;;;0.50;;
43363;SDS011;40636;52.424;-1.948;2023-08-24T12:43:16;1.33;;;0.50;;
43363;SDS011;40636;52.424;-1.948;2023-08-24T12:45:45;0.52;;;0.45;;
43363;SDS011;40636;52.424;-1.948;2023-08-24T12:48:11;1.02;;;0.60;;
43363;SDS011;40636;52.424;-1.948;2023-08-24T12:50:38;1.38;;;0.50;;
43363;SDS011;40636;52.424;-1.948;2023-08-24T12:53:05;1.50;;;0.70;;
43363;SDS011;40636;52.424;-1.948;2023-08-24T12:55:36;1.23;;;0.40;;
43363;SDS011;40636;52.424;-1.948;2023-08-24T12:58:04;1.05;;;0.65;;
43363;SDS011;40636;52.424;-1.948;2023-08-24T13:00:31;1.27;;;0.90;;
43363;SDS011;40636;52.424;-1.948;2023-08-24T13:02:59;1.10;;;0.85;;
43363;SDS011;40636;52.424;-1.948;2023-08-24T13:05:26;1.23;;;1.13;;
43363;SDS011;40636;52.424;-1.948;2023-08-24T13:07:53;1.33;;;0.70;;
43363;SDS011;40636;52.424;-1.948;2023-08-24T13:10:22;1.50;;;1.10;;
43363;SDS011;40636;52.424;-1.948;2023-08-24T13:12:49;0.95;;;0.82;;
43363;SDS011;40636;52.424;-1.948;2023-08-24T13:15:16;1.55;;;1.00;;
43363;SDS011;40636;52.424;-1.948;2023-08-24T13:17:43;1.70;;;1.02;;
43363;SDS011;40636;52.424;-1.948;2023-08-24T13:20:09;4.00;;;1.00;;
43363;SDS011;40636;52.424;-1.948;2023-08-24T13:22:36;1.15;;;1.00;;
43363;SDS011;40636;52.424;-1.948;2023-08-24T13:25:03;2.38;;;0.90;;
43363;SDS011;40636;52.424;-1.948;2023-08-24T13:30:23;2.00;;;0.90;;
43363;SDS011;40636;52.424;-1.948;2023-08-24T13:36:05;1.20;;;0.93;;
43363;SDS011;40636;52.424;-1.948;2023-08-24T13:38:37;2.38;;;0.80;;
43363;SDS011;40636;52.424;-1.948;2023-08-24T13:41:07;1.70;;;0.77;;
43363;SDS011;40636;52.424;-1.948;2023-08-24T13:43:43;1.33;;;0.77;;
43363;SDS011;40636;52.424;-1.948;2023-08-24T13:46:10;1.17;;;1.05;;
43363;SDS011;40636;52.424;-1.948;2023-08-24T13:48:37;2.80;;;1.00;;
43363;SDS011;40636;52.424;-1.948;2023-08-24T13:53:41;2.60;;;0.60;;
43363;SDS011;40636;52.424;-1.948;2023-08-24T13:56:21;1.27;;;0.90;;
43363;SDS011;40636;52.424;-1.948;2023-08-24T13:59:20;3.40;;;1.00;;
43363;SDS011;40636;52.424;-1.948;2023-08-24T14:02:11;0.75;;;0.73;;
43363;SDS011;40636;52.424;-1.948;2023-08-24T14:04:40;1.67;;;0.70;;
43363;SDS011;40636;52.424;-1.948;2023-08-24T14:07:37;2.72;;;0.98;;
43363;SDS011;40636;52.424;-1.948;2023-08-24T14:10:04;1.75;;;1.13;;
43363;SDS011;40636;52.424;-1.948;2023-08-24T14:12:34;3.10;;;1.15;;
43363;SDS011;40636;52.424;-1.948;2023-08-24T14:15:07;2.17;;;1.48;;
43363;SDS011;40636;52.424;-1.948;2023-08-24T14:17:44;1.75;;;1.02;;
43363;SDS011;40636;52.424;-1.948;2023-08-24T14:20:11;2.55;;;0.90;;
43363;SDS011;40636;52.424;-1.948;2023-08-24T14:22:42;0.73;;;0.70;;
43363;SDS011;40636;52.424;-1.948;2023-08-24T14:25:12;1.55;;;0.80;;
43363;SDS011;40636;52.424;-1.948;2023-08-24T14:27:40;1.20;;;0.80;;
43363;SDS011;40636;52.424;-1.948;2023-08-24T14:30:24;2.95;;;1.00;;
43363;SDS011;40636;52.424;-1.948;2023-08-24T14:32:54;1.27;;;0.88;;
43363;SDS011;40636;52.424;-1.948;2023-08-24T14:35:21;1.88;;;1.10;;
43363;SDS011;40636;52.424;-1.948;2023-08-24T14:37:56;0.88;;;0.77;;
43363;SDS011;40636;52.424;-1.948;2023-08-24T14:40:25;3.13;;;0.98;;
43363;SDS011;40636;52.424;-1.948;2023-08-24T14:42:52;1.27;;;0.93;;
43363;SDS011;40636;52.424;-1.948;2023-08-24T14:45:22;1.85;;;1.02;;
43363;SDS011;40636;52.424;-1.948;2023-08-24T14:47:56;1.92;;;1.17;;
43363;SDS011;40636;52.424;-1.948;2023-08-24T14:52:52;2.50;;;0.70;;
43363;SDS011;40636;52.424;-1.948;2023-08-24T14:55:22;1.58;;;1.30;;
43363;SDS011;40636;52.424;-1.948;2023-08-24T14:57:49;1.98;;;1.10;;
43363;SDS011;40636;52.424;-1.948;2023-08-24T15:00:29;1.05;;;0.90;;
43363;SDS011;40636;52.424;-1.948;2023-08-24T15:02:56;1.27;;;1.10;;
43363;SDS011;40636;52.424;-1.948;2023-08-24T15:05:23;1.15;;;1.05;;
43363;SDS011;40636;52.424;-1.948;2023-08-24T15:07:52;2.42;;;1.33;;
43363;SDS011;40636;52.424;-1.948;2023-08-24T15:10:20;3.50;;;1.83;;
43363;SDS011;40636;52.424;-1.948;2023-08-24T15:12:54;1.77;;;1.33;;